createdAt,value
2018-09-02T00:01:27.120Z,11.20
2018-09-02T00:03:55.383Z,11.10
2018-09-02T00:06:23.645Z,11.00
2018-09-02T00:08:51.716Z,11.10
2018-09-02T00:11:20.194Z,11.10
2018-09-02T00:13:48.518Z,11.10
2018-09-02T00:16:16.678Z,11.10
2018-09-02T00:18:45.869Z,11.10
2018-09-02T00:21:14.397Z,11.00
2018-09-02T00:23:43.171Z,10.90
2018-09-02T00:26:11.526Z,10.80
2018-09-02T00:28:41.532Z,10.80
2018-09-02T00:31:10.601Z,10.70
2018-09-02T00:33:39.126Z,10.60
2018-09-02T00:36:11.898Z,10.50
2018-09-02T00:38:40.281Z,10.40
2018-09-02T00:41:08.349Z,10.50
2018-09-02T00:43:36.430Z,10.60
2018-09-02T00:46:04.874Z,10.60
2018-09-02T00:48:33.205Z,10.50
2018-09-02T00:51:01.523Z,10.50
2018-09-02T00:53:29.617Z,10.40
2018-09-02T00:55:58.441Z,10.40
2018-09-02T00:58:26.768Z,10.40
2018-09-02T01:00:54.862Z,10.40
2018-09-02T01:03:23.666Z,10.40
2018-09-02T01:05:52.676Z,10.40
2018-09-02T01:08:21.161Z,10.40
2018-09-02T01:10:50.291Z,10.40
2018-09-02T01:13:19.145Z,10.40
2018-09-02T01:15:48.029Z,10.40
2018-09-02T01:18:18.219Z,10.30
2018-09-02T01:20:47.585Z,10.30
2018-09-02T01:23:16.566Z,10.30
2018-09-02T01:25:44.693Z,10.30
2018-09-02T01:28:13.257Z,10.20
2018-09-02T01:30:42.383Z,10.20
2018-09-02T01:33:10.497Z,10.20
2018-09-02T01:35:39.164Z,10.20
2018-09-02T01:38:07.677Z,10.20
2018-09-02T01:40:36.397Z,10.10
2018-09-02T01:43:04.987Z,9.80
2018-09-02T01:45:34.325Z,10.10
2018-09-02T01:48:03.335Z,10.10
2018-09-02T01:50:32.114Z,10.20
2018-09-02T01:53:00.701Z,10.20
2018-09-02T01:55:29.254Z,10.10
2018-09-02T01:57:58.193Z,10.10
2018-09-02T02:00:27.381Z,10.10
2018-09-02T02:02:55.632Z,10.00
2018-09-02T02:05:31.202Z,10.10
2018-09-02T02:07:59.853Z,10.10
2018-09-02T02:10:29.309Z,10.00
2018-09-02T02:12:58.181Z,10.00
2018-09-02T02:15:27.299Z,10.00
2018-09-02T02:17:55.581Z,10.00
2018-09-02T02:20:24.043Z,10.10
2018-09-02T02:22:53.849Z,10.10
2018-09-02T02:25:22.429Z,10.10
2018-09-02T02:27:50.622Z,10.10
2018-09-02T02:30:19.109Z,10.10
2018-09-02T02:32:48.078Z,10.10
2018-09-02T02:35:17.039Z,10.10
2018-09-02T02:37:45.096Z,10.10
2018-09-02T02:40:13.162Z,10.10
2018-09-02T02:42:41.878Z,10.10
2018-09-02T02:45:11.162Z,10.10
2018-09-02T02:47:39.393Z,10.00
2018-09-02T02:50:07.537Z,10.00
2018-09-02T02:52:43.749Z,10.00
2018-09-02T02:55:12.321Z,9.90
2018-09-02T02:57:40.730Z,9.80
2018-09-02T03:00:09.130Z,9.90
2018-09-02T03:02:38.022Z,9.90
2018-09-02T03:05:06.510Z,9.90
2018-09-02T03:07:35.761Z,9.90
2018-09-02T03:10:04.109Z,10.00
2018-09-02T03:12:32.574Z,10.00
2018-09-02T03:15:01.022Z,9.90
2018-09-02T03:17:29.291Z,10.00
2018-09-02T03:19:58.241Z,10.00
2018-09-02T03:22:27.502Z,10.00
2018-09-02T03:24:56.266Z,10.00
2018-09-02T03:27:24.753Z,10.00
2018-09-02T03:29:52.826Z,10.00
2018-09-02T03:32:20.937Z,10.00
2018-09-02T03:34:50.546Z,10.00
2018-09-02T03:37:19.370Z,10.00
2018-09-02T03:39:47.445Z,9.90
2018-09-02T03:42:15.985Z,9.90
2018-09-02T03:44:44.334Z,9.90
2018-09-02T03:47:12.435Z,9.90
2018-09-02T03:49:41.327Z,9.80
2018-09-02T03:52:10.145Z,9.70
2018-09-02T03:54:38.597Z,9.80
2018-09-02T03:57:07.098Z,9.80
2018-09-02T03:59:35.154Z,9.80
2018-09-02T04:02:03.806Z,9.70
2018-09-02T04:04:32.301Z,9.70
2018-09-02T04:07:00.601Z,9.60
2018-09-02T04:09:28.705Z,9.60
2018-09-02T04:11:58.479Z,9.60
2018-09-02T04:14:27.077Z,9.60
2018-09-02T04:16:55.269Z,9.50
2018-09-02T04:19:23.965Z,9.40
2018-09-02T04:23:16.580Z,9.40
2018-09-02T04:25:44.862Z,9.30
2018-09-02T04:28:14.639Z,9.30
2018-09-02T04:30:43.500Z,9.20
2018-09-02T04:33:11.902Z,9.20
2018-09-02T04:35:40.974Z,9.30
2018-09-02T04:38:09.077Z,9.40
2018-09-02T04:40:38.853Z,9.40
2018-09-02T04:43:07.823Z,9.50
2018-09-02T04:45:35.941Z,9.50
2018-09-02T04:48:05.193Z,9.60
2018-09-02T04:50:34.097Z,9.60
2018-09-02T04:53:02.997Z,9.70
2018-09-02T05:02:29.163Z,9.80
2018-09-02T05:04:58.737Z,9.90
2018-09-02T05:07:27.967Z,9.90
2018-09-02T05:09:57.539Z,10.00
2018-09-02T05:12:26.021Z,10.00
2018-09-02T05:14:54.597Z,10.00
2018-09-02T05:17:25.902Z,10.10
2018-09-02T05:19:55.202Z,10.20
2018-09-02T05:22:23.306Z,10.20
2018-09-02T05:24:51.469Z,10.30
2018-09-02T05:27:20.249Z,10.40
2018-09-02T05:29:50.014Z,10.60
2018-09-02T05:32:18.517Z,10.70
2018-09-02T05:34:47.361Z,10.80
2018-09-02T05:37:17.186Z,10.90
2018-09-02T05:39:46.082Z,11.00
2018-09-02T05:42:14.319Z,11.10
2018-09-02T05:44:43.910Z,11.20
2018-09-02T05:47:13.061Z,11.30
2018-09-02T05:49:42.294Z,11.40
2018-09-02T05:52:11.034Z,11.50
2018-09-02T05:54:39.156Z,11.60
2018-09-02T05:57:07.873Z,11.60
2018-09-02T05:59:35.989Z,11.70
2018-09-02T06:02:04.746Z,11.80
2018-09-02T06:04:33.938Z,11.60
2018-09-02T06:07:02.929Z,11.70
2018-09-02T06:09:32.419Z,11.80
2018-09-02T06:12:01.896Z,11.90
2018-09-02T06:14:30.581Z,12.20
2018-09-02T06:16:58.823Z,12.60
2018-09-02T06:19:27.525Z,13.00
2018-09-02T06:21:56.334Z,13.30
2018-09-02T06:24:25.373Z,13.50
2018-09-02T06:26:55.061Z,13.70
2018-09-02T06:29:23.217Z,14.00
2018-09-02T06:31:51.906Z,14.30
2018-09-02T06:34:20.008Z,14.50
2018-09-02T06:36:48.995Z,14.80
2018-09-02T06:39:17.569Z,15.00
2018-09-02T06:41:46.057Z,15.20
2018-09-02T06:44:14.834Z,15.40
2018-09-02T06:46:43.996Z,15.70
2018-09-02T06:49:12.865Z,16.50
2018-09-02T06:51:41.493Z,17.60
2018-09-02T06:54:09.886Z,18.10
2018-09-02T06:56:39.058Z,18.70
2018-09-02T06:59:07.403Z,18.70
2018-09-02T07:01:35.510Z,19.10
2018-09-02T07:04:04.726Z,19.00
2018-09-02T07:06:33.548Z,19.30
2018-09-02T07:09:01.817Z,19.60
2018-09-02T07:11:30.221Z,19.90
2018-09-02T07:13:59.069Z,20.50
2018-09-02T07:16:28.893Z,20.90
2018-09-02T07:18:57.061Z,21.00
2018-09-02T07:21:25.517Z,21.30
2018-09-02T07:23:54.964Z,21.50
2018-09-02T07:26:23.837Z,21.60
2018-09-02T07:28:53.012Z,21.10
2018-09-02T07:31:22.049Z,20.70
2018-09-02T07:33:50.649Z,21.20
2018-09-02T07:36:19.678Z,21.50
2018-09-02T07:38:52.914Z,21.20
2018-09-02T07:41:22.422Z,21.50
2018-09-02T07:43:51.628Z,21.60
2018-09-02T07:46:19.593Z,21.70
2018-09-02T07:48:47.875Z,23.30
2018-09-02T07:51:16.026Z,23.80
2018-09-02T07:53:44.408Z,22.80
2018-09-02T07:56:13.103Z,22.60
2018-09-02T07:58:41.177Z,24.00
2018-09-02T08:01:09.513Z,24.60
2018-09-02T08:03:37.736Z,24.60
2018-09-02T08:06:06.910Z,24.90
2018-09-02T08:08:35.125Z,24.80
2018-09-02T08:11:04.089Z,25.10
2018-09-02T08:13:32.790Z,25.60
2018-09-02T08:16:01.653Z,25.60
2018-09-02T08:18:30.418Z,25.20
2018-09-02T08:20:59.333Z,25.10
2018-09-02T08:23:27.431Z,23.50
2018-09-02T08:25:55.945Z,23.80
2018-09-02T08:28:24.929Z,22.50
2018-09-02T08:30:54.161Z,21.70
2018-09-02T08:33:24.200Z,21.60
2018-09-02T08:35:52.401Z,21.20
2018-09-02T08:38:20.821Z,20.30
2018-09-02T08:40:48.933Z,20.80
2018-09-02T08:43:18.882Z,21.10
2018-09-02T08:45:47.313Z,21.60
2018-09-02T08:48:15.383Z,21.00
2018-09-02T08:50:44.766Z,20.90
2018-09-02T08:53:13.517Z,20.30
2018-09-02T08:55:41.734Z,20.60
2018-09-02T08:58:09.853Z,20.70
2018-09-02T09:00:39.118Z,20.50
2018-09-02T09:03:07.745Z,20.40
2018-09-02T09:05:36.104Z,20.70
2018-09-02T09:08:04.798Z,22.40
2018-09-02T09:10:33.738Z,24.00
2018-09-02T09:13:01.907Z,23.80
2018-09-02T09:15:30.015Z,23.10
2018-09-02T09:17:59.676Z,23.10
2018-09-02T09:20:28.798Z,23.80
2018-09-02T09:22:57.955Z,23.10
2018-09-02T09:25:26.042Z,22.50
2018-09-02T09:27:54.219Z,22.40
2018-09-02T09:30:22.841Z,23.70
2018-09-02T09:32:51.463Z,25.00
2018-09-02T09:35:20.733Z,24.40
2018-09-02T09:37:48.975Z,23.20
2018-09-02T09:40:18.771Z,22.10
2018-09-02T09:42:47.463Z,21.20
2018-09-02T09:45:16.515Z,20.80
2018-09-02T09:47:45.333Z,21.60
2018-09-02T09:50:13.449Z,22.60
2018-09-02T09:52:42.537Z,23.50
2018-09-02T09:55:11.350Z,25.50
2018-09-02T09:57:39.434Z,26.70
2018-09-02T10:00:07.838Z,27.20
2018-09-02T10:02:36.009Z,26.00
2018-09-02T10:05:05.320Z,26.90
2018-09-02T10:07:34.039Z,28.30
2018-09-02T10:10:02.274Z,27.90
2018-09-02T10:12:31.285Z,27.00
2018-09-02T10:14:59.854Z,26.00
2018-09-02T10:17:28.422Z,27.10
2018-09-02T10:19:57.325Z,28.70
2018-09-02T10:22:25.428Z,29.90
2018-09-02T10:24:53.821Z,29.00
2018-09-02T10:27:22.467Z,28.20
2018-09-02T10:29:51.370Z,26.20
2018-09-02T10:32:19.935Z,25.10
2018-09-02T10:34:48.359Z,24.80
2018-09-02T10:37:16.752Z,25.80
2018-09-02T10:39:46.006Z,27.80
2018-09-02T10:42:15.199Z,29.60
2018-09-02T10:44:44.125Z,30.20
2018-09-02T10:47:13.034Z,30.50
2018-09-02T10:49:43.502Z,30.70
2018-09-02T10:52:12.069Z,31.50
2018-09-02T10:54:40.729Z,31.30
2018-09-02T10:57:08.853Z,30.60
2018-09-02T10:59:37.159Z,31.00
2018-09-02T11:02:05.924Z,31.90
2018-09-02T11:04:34.853Z,31.70
2018-09-02T11:07:04.077Z,29.90
2018-09-02T11:09:33.222Z,29.70
2018-09-02T11:12:02.003Z,29.50
2018-09-02T11:14:30.814Z,29.80
2018-09-02T11:16:59.225Z,30.00
2018-09-02T11:19:28.476Z,30.20
2018-09-02T11:21:57.277Z,29.90
2018-09-02T11:24:25.780Z,30.40
2018-09-02T11:26:54.354Z,31.10
2018-09-02T11:29:22.913Z,29.40
2018-09-02T11:31:51.192Z,28.80
2018-09-02T11:34:19.473Z,25.60
2018-09-02T11:36:48.393Z,26.80
2018-09-02T11:39:16.957Z,28.70
2018-09-02T11:41:45.125Z,29.70
2018-09-02T11:44:13.671Z,27.10
2018-09-02T11:46:42.144Z,26.70
2018-09-02T11:49:10.457Z,26.00
2018-09-02T11:51:39.433Z,25.50
2018-09-02T11:54:08.594Z,25.50
2018-09-02T11:56:37.650Z,25.00
2018-09-02T11:59:06.608Z,24.60
2018-09-02T12:01:35.469Z,25.70
2018-09-02T12:04:04.413Z,27.10
2018-09-02T12:06:33.297Z,26.20
2018-09-02T12:09:01.826Z,25.90
2018-09-02T12:11:30.062Z,25.50
2018-09-02T12:13:59.356Z,24.90
2018-09-02T12:16:27.394Z,25.00
2018-09-02T12:18:55.525Z,24.50
2018-09-02T12:21:24.313Z,24.80
2018-09-02T12:23:52.533Z,24.90
2018-09-02T12:26:20.673Z,25.30
2018-09-02T12:28:50.081Z,26.50
2018-09-02T12:31:19.125Z,25.50
2018-09-02T12:33:47.169Z,26.10
2018-09-02T12:36:16.878Z,26.50
2018-09-02T12:38:45.858Z,27.30
2018-09-02T12:41:14.849Z,26.40
2018-09-02T12:43:43.029Z,25.50
2018-09-02T12:46:11.390Z,25.10
2018-09-02T12:48:39.614Z,24.90
2018-09-02T12:52:12.473Z,25.50
2018-09-02T12:54:41.278Z,24.60
2018-09-02T12:57:09.364Z,24.70
2018-09-02T12:59:38.453Z,24.70
2018-09-02T13:02:07.002Z,24.20
2018-09-02T13:04:36.509Z,24.30
2018-09-02T13:07:04.987Z,24.90
2018-09-02T13:09:34.136Z,25.30
2018-09-02T13:12:02.169Z,24.90
2018-09-02T13:14:31.065Z,24.80
2018-09-02T13:16:59.322Z,25.00
2018-09-02T13:19:29.055Z,25.10
2018-09-02T13:21:58.090Z,24.60
2018-09-02T13:24:26.226Z,25.20
2018-09-02T13:26:55.237Z,24.90
2018-09-02T13:29:24.533Z,24.20
2018-09-02T13:31:52.937Z,24.00
2018-09-02T13:34:21.101Z,24.20
2018-09-02T13:36:51.012Z,23.80
2018-09-02T13:39:20.030Z,23.80
2018-09-02T13:41:48.233Z,23.90
2018-09-02T13:44:16.442Z,23.80
2018-09-02T13:46:45.054Z,23.20
2018-09-02T13:49:13.172Z,23.50
2018-09-02T13:51:42.585Z,23.10
2018-09-02T13:54:12.373Z,22.90
2018-09-02T13:56:41.922Z,23.20
2018-09-02T13:59:10.284Z,23.20
2018-09-02T14:01:38.581Z,22.80
2018-09-02T14:04:06.653Z,23.20
2018-09-02T14:06:35.573Z,23.30
2018-09-02T14:09:05.289Z,23.60
2018-09-02T14:11:33.386Z,23.60
2018-09-02T14:14:02.315Z,23.90
2018-09-02T14:16:30.430Z,23.50
2018-09-02T14:18:59.054Z,23.10
2018-09-02T14:21:27.132Z,22.90
2018-09-02T14:23:55.357Z,23.00
2018-09-02T14:26:23.440Z,22.90
2018-09-02T14:28:53.069Z,23.20
2018-09-02T14:31:22.160Z,23.50
2018-09-02T14:33:51.273Z,24.00
2018-09-02T14:36:20.306Z,23.60
2018-09-02T14:39:52.446Z,23.60
2018-09-02T14:42:21.541Z,23.60
2018-09-02T14:44:49.978Z,23.20
2018-09-02T14:47:18.127Z,22.40
2018-09-02T14:49:46.201Z,21.90
2018-09-02T14:52:14.744Z,22.30
2018-09-02T14:54:42.959Z,22.40
2018-09-02T14:57:11.165Z,22.40
2018-09-02T14:59:39.585Z,22.70
2018-09-02T15:02:08.230Z,22.70
2018-09-02T15:04:36.365Z,22.70
2018-09-02T15:07:05.614Z,22.70
2018-09-02T15:09:34.225Z,22.90
2018-09-02T15:12:02.435Z,22.80
2018-09-02T15:14:31.023Z,23.20
2018-09-02T15:16:59.165Z,22.70
2018-09-02T15:19:27.397Z,22.20
2018-09-02T15:21:55.670Z,21.80
2018-09-02T15:24:24.978Z,21.70
2018-09-02T15:26:53.761Z,21.90
2018-09-02T15:29:22.620Z,22.10
2018-09-02T15:31:51.099Z,22.20
2018-09-02T15:34:19.545Z,21.80
2018-09-02T15:36:48.602Z,21.40
2018-09-02T15:39:17.624Z,21.50
2018-09-02T15:41:46.505Z,21.70
2018-09-02T15:44:14.729Z,21.90
2018-09-02T15:46:44.147Z,22.10
2018-09-02T15:49:12.301Z,22.20
2018-09-02T15:51:40.702Z,22.00
2018-09-02T15:54:09.493Z,21.60
2018-09-02T15:56:39.320Z,21.60
2018-09-02T15:59:07.595Z,21.70
2018-09-02T16:01:36.046Z,21.70
2018-09-02T16:04:04.614Z,21.70
2018-09-02T16:06:33.850Z,21.60
2018-09-02T16:09:01.997Z,21.60
2018-09-02T16:11:30.090Z,21.70
2018-09-02T16:13:58.245Z,21.30
2018-09-02T16:16:26.870Z,21.20
2018-09-02T16:18:55.643Z,21.10
2018-09-02T16:21:24.635Z,21.10
2018-09-02T16:23:52.969Z,21.00
2018-09-02T16:27:51.093Z,21.00
2018-09-02T16:30:19.735Z,21.10
2018-09-02T16:32:48.075Z,21.10
2018-09-02T16:35:17.621Z,21.00
2018-09-02T16:37:46.482Z,20.80
2018-09-02T16:40:15.245Z,20.90
2018-09-02T16:42:43.651Z,20.70
2018-09-02T16:45:12.566Z,20.70
2018-09-02T16:47:40.656Z,20.70
2018-09-02T16:50:08.927Z,20.50
2018-09-02T16:52:36.996Z,20.50
2018-09-02T16:55:05.570Z,20.60
2018-09-02T16:57:34.745Z,20.50
2018-09-02T17:00:02.972Z,20.50
2018-09-02T17:02:31.282Z,20.70
2018-09-02T17:05:10.317Z,20.60
2018-09-02T17:07:38.687Z,20.50
2018-09-02T17:10:07.425Z,20.50
2018-09-02T17:12:35.727Z,20.60
2018-09-02T17:15:04.297Z,20.50
2018-09-02T17:17:33.166Z,20.50
2018-09-02T17:20:01.465Z,20.50
2018-09-02T17:22:29.685Z,20.30
2018-09-02T17:24:57.999Z,20.20
2018-09-02T17:27:26.117Z,20.10
2018-09-02T17:29:54.541Z,20.10
2018-09-02T17:32:23.405Z,20.20
2018-09-02T17:34:51.517Z,20.00
2018-09-02T17:37:20.566Z,20.00
2018-09-02T17:39:48.739Z,19.90
2018-09-02T17:42:17.054Z,19.90
2018-09-02T17:44:45.155Z,20.00
2018-09-02T17:47:13.945Z,19.80
2018-09-02T17:49:42.752Z,19.90
2018-09-02T17:52:10.817Z,19.90
2018-09-02T17:54:38.897Z,19.70
2018-09-02T17:57:07.417Z,19.60
2018-09-02T17:59:36.163Z,19.70
2018-09-02T18:02:04.323Z,19.70
2018-09-02T18:04:32.452Z,19.60
2018-09-02T18:07:00.787Z,19.60
2018-09-02T18:09:29.834Z,19.40
2018-09-02T18:11:59.097Z,19.40
2018-09-02T18:14:27.292Z,19.40
2018-09-02T18:16:55.645Z,19.20
2018-09-02T18:19:24.181Z,19.20
2018-09-02T18:21:52.739Z,19.10
2018-09-02T18:24:21.782Z,19.00
2018-09-02T18:26:50.064Z,19.00
2018-09-02T18:29:18.510Z,18.90
2018-09-02T18:31:47.273Z,18.90
2018-09-02T18:34:15.549Z,18.90
2018-09-02T18:36:44.110Z,18.90
2018-09-02T18:39:12.840Z,18.90
2018-09-02T18:41:41.117Z,18.80
2018-09-02T18:44:09.423Z,18.80
2018-09-02T18:46:37.628Z,18.80
2018-09-02T18:49:06.469Z,18.80
2018-09-02T18:51:35.967Z,18.70
2018-09-02T18:54:04.445Z,18.70
2018-09-02T18:56:33.426Z,18.60
2018-09-02T18:59:02.422Z,18.60
2018-09-02T19:01:30.774Z,18.60
2018-09-02T19:03:59.177Z,18.60
2018-09-02T19:06:27.285Z,18.60
2018-09-02T19:08:56.257Z,18.60
2018-09-02T19:11:24.657Z,18.50
2018-09-02T19:13:52.829Z,18.50
2018-09-02T19:16:21.314Z,18.40
2018-09-02T19:18:49.738Z,18.40
2018-09-02T19:21:19.194Z,18.30
2018-09-02T19:24:50.421Z,18.30
2018-09-02T19:27:19.237Z,18.20
2018-09-02T19:29:47.421Z,18.20
2018-09-02T19:32:15.433Z,18.20
2018-09-02T19:34:43.739Z,18.10
2018-09-02T19:37:11.869Z,18.20
2018-09-02T19:39:40.904Z,18.10
2018-09-02T19:42:09.768Z,18.10
2018-09-02T19:44:37.992Z,18.10
2018-09-02T19:47:06.554Z,18.00
2018-09-02T19:49:34.711Z,18.10
2018-09-02T19:52:03.637Z,18.10
2018-09-02T19:54:32.005Z,18.00
2018-09-02T19:57:03.198Z,18.00
2018-09-02T19:59:35.233Z,18.00
2018-09-02T20:02:10.607Z,18.00
2018-09-02T20:04:45.390Z,17.90
2018-09-02T20:07:19.134Z,17.90
2018-09-02T20:09:55.013Z,17.90
2018-09-02T20:12:29.689Z,17.80
2018-09-02T20:15:13.363Z,17.80
2018-09-02T20:17:44.525Z,17.80
2018-09-02T20:20:18.437Z,17.80
2018-09-02T20:27:47.397Z,17.70
2018-09-02T20:30:22.601Z,17.70
2018-09-02T20:33:04.018Z,17.70
2018-09-02T20:35:37.716Z,17.70
2018-09-02T20:38:10.717Z,17.60
2018-09-02T20:40:48.750Z,17.60
2018-09-02T20:43:26.621Z,17.50
2018-09-02T20:46:02.093Z,17.50
2018-09-02T20:48:36.641Z,17.50
2018-09-02T20:51:12.772Z,17.50
2018-09-02T20:53:50.021Z,17.40
2018-09-02T20:59:04.339Z,17.30
2018-09-02T21:01:41.129Z,17.30
2018-09-02T21:04:20.105Z,17.20
2018-09-02T21:06:53.370Z,17.20
2018-09-02T21:09:25.903Z,17.20
2018-09-02T21:11:58.973Z,17.20
2018-09-02T21:14:37.711Z,17.20
2018-09-02T21:17:17.334Z,17.30
2018-09-02T21:19:59.324Z,17.30
2018-09-02T21:22:32.391Z,17.30
2018-09-02T21:25:06.760Z,17.30
2018-09-02T21:27:40.753Z,17.30
2018-09-02T21:30:15.344Z,17.20
2018-09-02T21:32:48.526Z,17.20
2018-09-02T21:35:22.699Z,17.20
2018-09-02T21:37:55.792Z,17.20
2018-09-02T21:40:34.029Z,17.20
2018-09-02T21:43:11.576Z,17.20
2018-09-02T21:45:46.069Z,17.20
2018-09-02T21:48:23.500Z,17.20
2018-09-02T21:51:04.961Z,17.10
2018-09-02T21:53:44.039Z,17.10
2018-09-02T21:56:22.805Z,17.10
2018-09-02T21:58:56.011Z,17.10
2018-09-02T22:01:29.694Z,17.10
2018-09-02T22:04:03.709Z,17.10
2018-09-02T22:06:39.185Z,17.00
2018-09-02T22:09:18.173Z,17.00
2018-09-02T22:11:52.655Z,17.00
2018-09-02T22:14:33.194Z,17.00
2018-09-02T22:17:06.493Z,17.00
2018-09-02T22:19:38.140Z,17.00
2018-09-02T22:22:23.298Z,17.00
2018-09-02T22:24:57.001Z,17.00
2018-09-02T22:27:40.481Z,17.00
2018-09-02T22:30:17.898Z,17.00
2018-09-02T22:32:50.828Z,17.00
2018-09-02T22:35:28.151Z,17.00
2018-09-02T22:38:06.713Z,17.00
2018-09-02T22:40:42.121Z,17.10
2018-09-02T22:43:19.123Z,17.10
2018-09-02T22:45:51.334Z,17.10
2018-09-02T22:48:29.848Z,17.20
2018-09-02T22:51:02.972Z,17.10
2018-09-02T22:53:41.892Z,17.10
2018-09-02T22:56:18.098Z,17.20
2018-09-02T22:59:04.848Z,17.20
2018-09-02T23:01:42.813Z,17.20
2018-09-02T23:04:18.402Z,17.30
2018-09-02T23:06:51.438Z,17.30
2018-09-02T23:09:27.967Z,17.30
2018-09-02T23:12:03.549Z,17.30
2018-09-02T23:14:44.268Z,17.30
2018-09-02T23:17:28.995Z,17.40
2018-09-02T23:20:07.431Z,17.40
2018-09-02T23:22:40.875Z,17.40
2018-09-02T23:25:16.083Z,17.40
2018-09-02T23:27:50.473Z,17.40
2018-09-02T23:30:24.946Z,17.30
2018-09-02T23:33:01.545Z,17.40
2018-09-02T23:35:37.687Z,17.40
2018-09-02T23:38:17.426Z,17.40
2018-09-02T23:40:50.472Z,17.40
2018-09-02T23:43:26.179Z,17.40
2018-09-02T23:46:02.694Z,17.50
2018-09-02T23:48:41.160Z,17.50
2018-09-02T23:51:17.916Z,17.50
2018-09-02T23:56:36.680Z,17.50
2018-09-02T23:59:11.412Z,17.50
